Time;durP1;ratioP1;P1;durP2;ratioP2;P2;SDS_P1;SDS_P2;PMS_P1;PMS_P2;Temp;Humidity;BMP_temperature;BMP_pressure;BME280_temperature;BME280_humidity;BME280_pressure;Samples;Min_cycle;Max_cycle;Signal;HPM_P1;HPM_P2
2022/05/11 00:00:05;;;;;;;12.20;7.35;;;15.70;99.90;;;;;;5073826;28;20103;-67
2022/05/11 00:02:31;;;;;;;8.52;6.60;;;15.80;99.90;;;;;;5074083;28;20017;-67
2022/05/11 00:04:56;;;;;;;8.98;7.10;;;15.80;99.90;;;;;;5073822;28;20104;-67
2022/05/11 00:07:22;;;;;;;9.40;7.05;;;15.90;99.90;;;;;;5072308;28;20022;-67
2022/05/11 00:09:47;;;;;;;11.93;6.88;;;15.90;99.90;;;;;;5073667;28;20543;-67
2022/05/11 00:12:13;;;;;;;7.53;6.50;;;15.80;99.90;;;;;;5073655;28;20037;-67
2022/05/11 00:14:38;;;;;;;11.48;6.97;;;15.70;99.90;;;;;;5073518;28;20033;-67
2022/05/11 00:17:04;;;;;;;9.63;6.05;;;15.70;99.90;;;;;;5073582;28;20024;-67
2022/05/11 00:19:29;;;;;;;9.00;6.30;;;15.60;99.90;;;;;;5073543;28;20091;-67
2022/05/11 00:21:55;;;;;;;8.23;6.20;;;15.60;99.90;;;;;;5073709;28;20554;-67
2022/05/11 00:24:20;;;;;;;7.93;6.13;;;15.70;99.90;;;;;;5073463;28;20036;-67
2022/05/11 00:26:46;;;;;;;11.70;6.15;;;15.70;99.90;;;;;;5073421;28;20048;-67
2022/05/11 00:29:11;;;;;;;8.05;5.95;;;15.60;99.90;;;;;;5089109;28;20024;-67
2022/05/11 00:31:37;;;;;;;9.68;6.25;;;15.50;99.90;;;;;;5073605;28;20119;-67
2022/05/11 00:34:03;;;;;;;8.63;5.85;;;15.50;99.90;;;;;;5073325;28;20545;-67
2022/05/11 00:36:29;;;;;;;9.00;6.15;;;15.40;99.90;;;;;;5073586;28;20031;-67
2022/05/11 00:38:54;;;;;;;11.32;5.95;;;15.50;99.90;;;;;;5073402;28;20020;-67
2022/05/11 00:41:20;;;;;;;7.40;5.45;;;15.60;99.90;;;;;;5073239;28;20028;-67
2022/05/11 00:44:01;;;;;;;11.75;6.53;;;15.60;99.90;;;;;;5073231;28;20078;-67
2022/05/11 00:46:48;;;;;;;9.23;6.65;;;15.60;99.90;;;;;;5073483;28;20029;-67
2022/05/11 00:49:35;;;;;;;10.68;6.40;;;15.60;99.90;;;;;;5073080;28;20086;-67
2022/05/11 00:52:23;;;;;;;8.18;5.65;;;15.60;99.90;;;;;;5073260;28;20029;-67
2022/05/11 00:54:59;;;;;;;11.02;6.18;;;15.60;99.90;;;;;;5072872;28;20114;-67
2022/05/11 00:57:31;;;;;;;8.15;5.90;;;15.50;99.90;;;;;;5073164;28;20024;-67
2022/05/11 00:59:58;;;;;;;7.83;5.63;;;15.40;99.90;;;;;;5073374;28;20508;-67
2022/05/11 01:02:25;;;;;;;6.80;5.72;;;15.50;99.90;;;;;;5073204;28;20263;-67
2022/05/11 01:04:55;;;;;;;8.93;6.35;;;15.50;99.90;;;;;;5073060;28;20028;-67
2022/05/11 01:07:21;;;;;;;8.75;6.05;;;15.50;99.90;;;;;;5073027;28;20056;-67
2022/05/11 01:09:46;;;;;;;7.90;6.03;;;15.40;99.90;;;;;;5072995;28;20521;-67
2022/05/11 01:12:17;;;;;;;9.55;6.18;;;15.40;99.90;;;;;;5072950;28;20121;-67
2022/05/11 01:14:46;;;;;;;6.78;5.85;;;15.40;99.90;;;;;;5088514;28;20032;-67
2022/05/11 01:17:12;;;;;;;7.68;5.25;;;15.50;99.90;;;;;;5072973;28;20020;-67
2022/05/11 01:19:44;;;;;;;8.25;5.78;;;15.50;99.90;;;;;;5088534;28;20021;-67
2022/05/11 01:22:36;;;;;;;7.53;5.22;;;15.50;99.90;;;;;;5072810;28;20020;-67
2022/05/11 01:25:04;;;;;;;10.32;5.40;;;15.60;99.90;;;;;;5071517;28;20025;-67
2022/05/11 01:27:36;;;;;;;8.77;5.60;;;15.50;99.90;;;;;;5072783;28;20029;-67
2022/05/11 01:30:10;;;;;;;11.45;5.57;;;15.50;99.90;;;;;;5072841;28;20023;-67
2022/05/11 01:32:37;;;;;;;7.65;5.40;;;15.60;99.90;;;;;;5072854;28;20021;-67
2022/05/11 01:35:33;;;;;;;9.00;5.43;;;15.60;99.90;;;;;;5072743;28;20039;-67
2022/05/11 01:38:38;;;;;;;7.22;5.03;;;15.60;99.90;;;;;;5072707;28;20103;-68
2022/05/11 01:41:04;;;;;;;6.53;4.90;;;15.70;99.90;;;;;;5072575;28;20563;-67
2022/05/11 01:43:33;;;;;;;6.32;4.88;;;15.70;99.90;;;;;;5072938;28;20036;-68
2022/05/11 01:45:59;;;;;;;9.98;5.13;;;15.70;99.90;;;;;;5072750;28;20103;-67
2022/05/11 01:48:25;;;;;;;6.05;5.45;;;15.70;99.90;;;;;;5072605;28;20468;-67
2022/05/11 01:50:50;;;;;;;12.15;5.82;;;15.70;99.90;;;;;;5072877;28;20036;-67
2022/05/11 01:53:16;;;;;;;6.00;5.03;;;15.70;99.90;;;;;;5072314;28;20486;-67
2022/05/11 01:55:42;;;;;;;7.82;5.15;;;15.70;99.90;;;;;;5072599;28;20032;-67
2022/05/11 01:58:09;;;;;;;8.20;5.55;;;15.70;99.90;;;;;;5072569;28;20474;-67
2022/05/11 02:00:36;;;;;;;7.63;5.80;;;15.60;99.90;;;;;;5071867;28;20020;-67
2022/05/11 02:03:03;;;;;;;9.20;6.30;;;15.70;99.90;;;;;;5076203;28;20029;-67
2022/05/11 02:08:14;;;;;;;7.15;5.22;;;15.70;99.90;;;;;;5088930;28;20060;-67
2022/05/11 02:10:39;;;;;;;7.18;5.20;;;15.70;99.90;;;;;;5075989;28;20056;-67
2022/05/11 02:13:06;;;;;;;9.98;5.10;;;15.70;99.90;;;;;;5075939;28;20137;-67
2022/05/11 02:15:31;;;;;;;5.95;5.20;;;15.70;99.90;;;;;;5075877;28;20027;-67
2022/05/11 02:17:57;;;;;;;6.90;5.43;;;15.70;99.90;;;;;;5075871;28;20478;-67
2022/05/11 02:20:23;;;;;;;8.95;5.30;;;15.70;99.90;;;;;;5091499;28;20145;-67
2022/05/11 02:22:50;;;;;;;7.32;5.38;;;15.70;99.90;;;;;;5075815;28;20024;-67
2022/05/11 02:25:17;;;;;;;6.13;4.75;;;15.70;99.90;;;;;;5075719;28;20495;-67
2022/05/11 02:27:43;;;;;;;7.20;5.25;;;15.70;99.90;;;;;;5075732;28;20378;-67
2022/05/11 02:30:13;;;;;;;7.82;5.03;;;15.70;99.90;;;;;;5075603;28;20020;-67
2022/05/11 02:32:39;;;;;;;7.80;5.45;;;15.70;99.90;;;;;;5075648;28;20028;-67
2022/05/11 02:35:13;;;;;;;6.65;5.22;;;15.70;99.90;;;;;;5075513;28;20390;-67
2022/05/11 02:37:57;;;;;;;7.22;5.45;;;15.60;99.90;;;;;;5075816;28;20110;-67
2022/05/11 02:40:29;;;;;;;10.23;5.55;;;15.60;99.90;;;;;;5075454;28;20020;-67
2022/05/11 02:42:55;;;;;;;7.75;5.22;;;15.50;99.90;;;;;;5075379;28;20035;-67
2022/05/11 02:45:22;;;;;;;8.23;5.68;;;15.50;99.90;;;;;;5074045;28;20033;-67
2022/05/11 02:47:50;;;;;;;8.60;5.88;;;15.40;99.90;;;;;;5075568;28;20048;-67
2022/05/11 02:50:19;;;;;;;7.10;5.00;;;15.40;99.90;;;;;;5075529;28;20027;-67
2022/05/11 02:52:45;;;;;;;6.25;5.32;;;15.40;99.90;;;;;;5075032;28;20052;-67
2022/05/11 02:55:12;;;;;;;9.32;5.40;;;15.40;99.90;;;;;;5075150;28;20078;-68
2022/05/11 02:57:38;;;;;;;8.82;5.53;;;15.40;99.90;;;;;;5075365;28;20028;-67
2022/05/11 03:00:06;;;;;;;6.70;5.35;;;15.30;99.90;;;;;;5090781;28;20090;-68
2022/05/11 03:02:31;;;;;;;7.60;5.22;;;15.30;99.90;;;;;;5073824;28;20035;-68
2022/05/11 03:04:57;;;;;;;7.90;5.85;;;15.30;99.90;;;;;;5074953;28;20028;-68
2022/05/11 03:07:22;;;;;;;10.27;5.45;;;15.30;99.90;;;;;;5074892;28;20434;-67
2022/05/11 03:09:49;;;;;;;8.40;5.20;;;15.30;99.90;;;;;;5074853;28;20048;-68
2022/05/11 03:12:15;;;;;;;8.05;5.30;;;15.20;99.90;;;;;;5075054;28;20020;-67
2022/05/11 03:14:41;;;;;;;7.70;4.97;;;15.10;99.90;;;;;;5074659;28;20024;-67
2022/05/11 03:17:07;;;;;;;9.13;5.50;;;15.10;99.90;;;;;;5074727;28;20047;-67
2022/05/11 03:19:33;;;;;;;9.13;5.50;;;15.00;99.90;;;;;;5074660;28;20030;-67
2022/05/11 03:21:59;;;;;;;6.63;5.82;;;15.00;99.90;;;;;;5074710;28;20029;-67
2022/05/11 03:24:24;;;;;;;8.57;5.68;;;14.90;99.90;;;;;;5074502;28;20024;-67
2022/05/11 03:26:50;;;;;;;6.82;6.13;;;14.80;99.90;;;;;;5073265;28;20375;-68
2022/05/11 03:29:16;;;;;;;10.48;6.00;;;14.80;99.90;;;;;;5074435;28;20021;-67
2022/05/11 03:34:36;;;;;;;9.88;6.35;;;14.70;99.90;;;;;;5074467;28;20513;-67
2022/05/11 03:34:42;;;;;;;9.27;5.93;;;14.70;99.90;;;;;;5074234;28;20027;-67
2022/05/11 03:37:13;;;;;;;10.20;5.68;;;14.60;99.90;;;;;;5074338;28;20021;-68
2022/05/11 03:39:39;;;;;;;11.95;5.22;;;14.60;99.90;;;;;;5074341;28;20050;-68
2022/05/11 03:42:06;;;;;;;8.90;5.72;;;14.50;99.90;;;;;;5074469;28;20074;-68
2022/05/11 03:44:32;;;;;;;8.40;5.93;;;14.50;99.90;;;;;;5074240;28;20031;-67
2022/05/11 03:46:58;;;;;;;8.75;5.95;;;14.40;99.90;;;;;;5074124;28;20033;-67
2022/05/11 03:49:24;;;;;;;8.98;5.50;;;14.40;99.90;;;;;;5074339;28;20047;-67
2022/05/11 03:51:50;;;;;;;8.40;6.03;;;14.50;99.90;;;;;;5074302;28;20104;-67
2022/05/11 03:54:16;;;;;;;6.20;5.28;;;14.50;99.90;;;;;;5073762;28;20119;-67
2022/05/11 03:56:42;;;;;;;6.55;5.20;;;14.50;99.90;;;;;;5073998;28;20463;-67
2022/05/11 03:59:07;;;;;;;10.25;5.90;;;14.40;99.90;;;;;;5072709;28;20021;-67
2022/05/11 04:01:33;;;;;;;7.43;5.65;;;14.40;99.90;;;;;;5073877;28;20062;-67
2022/05/11 04:03:59;;;;;;;6.30;5.22;;;14.40;99.90;;;;;;5073904;28;20024;-67
2022/05/11 04:06:25;;;;;;;8.30;5.25;;;14.40;99.90;;;;;;5073695;28;20140;-67
2022/05/11 04:08:50;;;;;;;7.63;5.65;;;14.40;99.90;;;;;;5073975;28;20098;-67
2022/05/11 04:11:16;;;;;;;8.60;5.85;;;14.40;99.90;;;;;;5073648;28;20033;-67
2022/05/11 04:13:42;;;;;;;7.68;5.13;;;14.40;99.90;;;;;;5073871;28;20037;-67
2022/05/11 04:16:08;;;;;;;6.95;5.13;;;14.40;99.90;;;;;;5073589;28;20103;-67
2022/05/11 04:18:34;;;;;;;12.48;6.10;;;14.40;99.90;;;;;;5073856;28;20391;-67
2022/05/11 04:21:00;;;;;;;6.93;5.07;;;14.40;99.90;;;;;;5073654;28;20016;-68
2022/05/11 04:23:25;;;;;;;7.80;5.28;;;14.50;99.90;;;;;;5073365;28;20108;-67
2022/05/11 04:25:51;;;;;;;7.00;5.60;;;14.50;99.90;;;;;;5073462;28;20025;-67
2022/05/11 04:28:17;;;;;;;12.30;6.15;;;14.40;99.90;;;;;;5073428;28;20025;-67
2022/05/11 04:30:44;;;;;;;17.48;6.43;;;14.50;99.90;;;;;;5073652;28;20024;-67
2022/05/11 04:33:09;;;;;;;10.30;5.57;;;14.60;99.90;;;;;;5073334;28;20016;-67
2022/05/11 04:35:36;;;;;;;8.23;6.00;;;14.70;99.90;;;;;;5073360;28;20016;-67
2022/05/11 04:38:03;;;;;;;9.82;5.70;;;14.80;99.90;;;;;;5073585;28;20036;-67
2022/05/11 04:40:30;;;;;;;9.75;5.50;;;15.00;99.90;;;;;;5073263;28;20103;-67
2022/05/11 04:42:55;;;;;;;7.00;5.32;;;15.30;99.90;;;;;;5088906;28;20385;-67
2022/05/11 04:45:21;;;;;;;10.35;5.45;;;15.50;99.90;;;;;;5073222;28;20028;-67
2022/05/11 04:47:47;;;;;;;8.13;5.55;;;15.70;99.90;;;;;;5073129;28;20432;-67
2022/05/11 04:50:15;;;;;;;8.25;5.20;;;15.80;99.90;;;;;;5072112;28;20021;-67
2022/05/11 04:52:41;;;;;;;7.65;5.43;;;15.90;99.90;;;;;;5088439;28;20474;-67
2022/05/11 04:55:09;;;;;;;9.23;5.25;;;16.00;99.90;;;;;;5073094;28;20070;-67
2022/05/11 04:57:35;;;;;;;9.00;5.57;;;16.00;99.90;;;;;;5073191;28;20527;-67
2022/05/11 05:00:03;;;;;;;8.88;5.88;;;16.10;99.90;;;;;;5073394;28;20095;-67
2022/05/11 05:02:29;;;;;;;10.82;5.82;;;16.20;99.90;;;;;;5073192;28;20021;-67
2022/05/11 05:04:59;;;;;;;11.07;5.75;;;16.30;99.90;;;;;;5073044;28;20533;-68
2022/05/11 05:07:25;;;;;;;10.15;6.43;;;16.50;99.90;;;;;;5088400;28;20021;-67
2022/05/11 05:09:51;;;;;;;11.82;6.50;;;16.50;99.90;;;;;;5088635;28;20115;-67
2022/05/11 05:12:17;;;;;;;8.52;6.70;;;16.60;99.90;;;;;;5072948;28;20443;-67
2022/05/11 05:14:43;;;;;;;7.78;6.03;;;16.80;99.90;;;;;;5073039;28;20446;-67
2022/05/11 05:17:11;;;;;;;10.52;6.97;;;16.90;99.90;;;;;;5072864;28;20013;-67
2022/05/11 05:19:41;;;;;;;7.85;6.75;;;17.10;99.90;;;;;;5071739;28;20035;-68
2022/05/11 05:22:07;;;;;;;9.25;6.10;;;17.30;99.90;;;;;;5072942;28;20017;-67
2022/05/11 05:24:33;;;;;;;12.82;7.10;;;17.40;99.90;;;;;;5072886;28;20035;-67
2022/05/11 05:26:59;;;;;;;11.27;6.32;;;17.60;99.90;;;;;;5072869;28;20031;-67
2022/05/11 05:32:12;;;;;;;11.13;6.72;;;17.80;99.90;;;;;;5085653;28;20023;-68
2022/05/11 05:34:37;;;;;;;12.10;6.78;;;18.00;99.90;;;;;;5072510;28;20029;-67
2022/05/11 05:37:03;;;;;;;10.93;6.25;;;18.20;99.90;;;;;;5075676;28;20031;-68
2022/05/11 05:39:28;;;;;;;8.25;5.97;;;18.70;99.90;;;;;;5092138;28;20359;-67
2022/05/11 05:41:54;;;;;;;10.55;6.20;;;19.20;99.90;;;;;;5092208;28;20048;-68
2022/05/11 05:44:20;;;;;;;12.18;6.28;;;20.50;99.90;;;;;;5075164;28;20027;-68
2022/05/11 05:46:46;;;;;;;7.85;5.90;;;21.90;99.90;;;;;;5075186;28;20078;-68
2022/05/11 05:49:12;;;;;;;6.55;5.43;;;21.90;99.90;;;;;;5076617;28;20379;-68
2022/05/11 05:51:39;;;;;;;11.68;6.32;;;21.30;99.90;;;;;;5074862;28;20474;-68
2022/05/11 05:54:06;;;;;;;10.70;6.68;;;20.60;99.90;;;;;;5076035;28;20529;-68
2022/05/11 05:56:33;;;;;;;9.85;6.78;;;20.40;99.90;;;;;;5076298;28;20386;-68
2022/05/11 05:59:03;;;;;;;12.52;6.50;;;20.00;99.90;;;;;;5076233;28;20052;-68
2022/05/11 06:01:29;;;;;;;9.13;6.47;;;20.00;99.90;;;;;;5074708;28;20029;-68
2022/05/11 06:03:54;;;;;;;10.65;6.38;;;20.00;99.90;;;;;;5091767;28;20028;-68
2022/05/11 06:06:21;;;;;;;8.93;6.20;;;20.30;99.90;;;;;;5075908;28;20449;-68
2022/05/11 06:08:47;;;;;;;7.18;6.00;;;20.60;99.90;;;;;;5076196;28;20081;-68
2022/05/11 06:11:12;;;;;;;11.18;6.47;;;20.70;99.90;;;;;;5075926;28;20029;-68
2022/05/11 06:13:38;;;;;;;10.23;6.00;;;20.40;99.90;;;;;;5075832;28;20040;-68
2022/05/11 06:16:10;;;;;;;8.98;5.90;;;20.40;99.90;;;;;;5076118;28;20108;-68
2022/05/11 06:18:36;;;;;;;13.18;6.60;;;20.40;99.90;;;;;;5075832;28;20023;-68
2022/05/11 06:21:03;;;;;;;8.52;6.20;;;20.60;99.90;;;;;;5075872;28;20024;-68
2022/05/11 06:23:28;;;;;;;13.73;5.78;;;21.20;99.90;;;;;;5075689;28;20082;-68
2022/05/11 06:25:54;;;;;;;11.00;6.35;;;21.20;99.90;;;;;;5075857;28;20024;-68
2022/05/11 06:28:20;;;;;;;9.38;6.40;;;21.50;99.90;;;;;;5075521;28;20119;-68
2022/05/11 06:30:47;;;;;;;10.02;6.18;;;21.70;99.90;;;;;;5075691;28;20378;-68
2022/05/11 06:33:12;;;;;;;10.05;6.60;;;22.10;99.90;;;;;;5090930;28;20017;-68
2022/05/11 06:35:38;;;;;;;8.07;6.03;;;22.20;99.90;;;;;;5074158;28;20474;-67
2022/05/11 06:38:06;;;;;;;11.43;6.57;;;22.20;99.90;;;;;;5075484;28;20025;-67
2022/05/11 06:40:34;;;;;;;11.05;6.10;;;24.50;99.90;;;;;;5075404;28;20028;-67
2022/05/11 06:43:01;;;;;;;12.57;6.43;;;24.60;99.90;;;;;;5075346;28;20028;-68
2022/05/11 06:45:28;;;;;;;14.63;6.07;;;26.00;95.30;;;;;;5075495;28;20497;-68
2022/05/11 06:47:53;;;;;;;9.98;5.90;;;27.10;90.70;;;;;;5074901;28;20016;-66
2022/05/11 06:50:20;;;;;;;9.68;5.80;;;27.20;85.90;;;;;;5075226;28;20467;-66
2022/05/11 06:52:46;;;;;;;9.65;5.40;;;26.80;82.80;;;;;;5075137;28;20432;-68
2022/05/11 07:00:43;;;;;;;14.48;5.13;;;25.30;84.40;;;;;;5074838;28;20028;-68
2022/05/11 07:03:08;;;;;;;9.90;5.78;;;26.00;80.40;;;;;;5090487;28;20028;-68
2022/05/11 07:05:35;;;;;;;10.43;5.95;;;24.90;80.30;;;;;;5090619;28;20482;-68
2022/05/11 07:08:02;;;;;;;8.57;5.20;;;24.80;85.90;;;;;;5075008;28;20028;-67
2022/05/11 07:10:27;;;;;;;11.15;5.68;;;24.90;86.00;;;;;;5074688;28;20093;-67
2022/05/11 07:12:53;;;;;;;7.65;5.72;;;25.40;84.80;;;;;;5075175;28;20482;-68
2022/05/11 07:15:21;;;;;;;11.68;6.20;;;26.40;84.00;;;;;;5074622;28;20029;-68
2022/05/11 07:17:57;;;;;;;11.98;6.82;;;25.90;84.20;;;;;;5090315;28;20542;-68
2022/05/11 07:20:27;;;;;;;10.57;7.13;;;24.50;87.10;;;;;;5074760;28;20025;-68
2022/05/11 07:22:53;;;;;;;9.75;6.40;;;24.90;88.50;;;;;;5074855;28;20039;-68
2022/05/11 07:25:21;;;;;;;12.93;6.78;;;25.30;88.00;;;;;;5074450;28;20039;-68
2022/05/11 07:27:49;;;;;;;10.35;6.80;;;25.70;86.70;;;;;;5074652;28;20032;-68
2022/05/11 07:30:18;;;;;;;8.57;7.07;;;25.70;85.90;;;;;;5074403;28;20075;-68
2022/05/11 07:32:43;;;;;;;13.15;7.13;;;25.40;85.20;;;;;;5089748;28;20539;-68
2022/05/11 07:35:09;;;;;;;7.95;6.97;;;25.10;87.00;;;;;;5074365;28;20107;-68
2022/05/11 07:37:35;;;;;;;9.95;7.78;;;25.00;88.80;;;;;;5074486;28;20027;-68
2022/05/11 07:40:00;;;;;;;14.15;7.57;;;24.80;87.50;;;;;;5089866;28;20036;-67
2022/05/11 07:42:27;;;;;;;12.32;7.93;;;25.20;88.50;;;;;;5073985;28;20078;-67
2022/05/11 07:44:53;;;;;;;9.45;6.78;;;25.50;86.20;;;;;;5074164;28;20028;-68
2022/05/11 07:47:20;;;;;;;11.65;7.72;;;25.50;87.10;;;;;;5073933;28;20025;-67
2022/05/11 07:49:46;;;;;;;11.63;7.57;;;25.70;85.10;;;;;;5089560;28;20393;-67
2022/05/11 07:52:12;;;;;;;9.75;7.03;;;25.80;86.40;;;;;;5073857;28;20044;-67
2022/05/11 07:54:40;;;;;;;15.63;7.70;;;26.20;84.40;;;;;;5073662;28;20572;-68
2022/05/11 07:59:56;;;;;;;10.98;7.68;;;25.00;85.00;;;;;;5072965;28;20071;-67
2022/05/11 08:02:26;;;;;;;14.60;8.13;;;24.90;88.10;;;;;;5073704;28;20020;-67
2022/05/11 08:04:53;;;;;;;10.50;7.60;;;25.10;87.80;;;;;;5089036;28;20021;-69
2022/05/11 08:07:22;;;;;;;11.95;7.90;;;25.50;86.10;;;;;;5073720;28;20020;-68
2022/05/11 08:09:48;;;;;;;14.45;7.00;;;25.50;84.30;;;;;;5073584;28;20482;-68
2022/05/11 08:12:13;;;;;;;9.50;7.10;;;25.50;84.00;;;;;;5089119;28;20035;-68
2022/05/11 08:14:39;;;;;;;9.25;6.15;;;25.10;85.30;;;;;;5073488;28;20169;-68
2022/05/11 08:17:05;;;;;;;10.68;6.40;;;25.80;85.00;;;;;;5073485;28;20028;-68
2022/05/11 08:19:30;;;;;;;13.80;7.00;;;25.60;84.10;;;;;;5073427;28;20495;-68
2022/05/11 08:21:56;;;;;;;13.13;5.93;;;25.50;84.30;;;;;;5073506;28;20033;-67
2022/05/11 08:24:22;;;;;;;12.55;6.07;;;25.30;82.40;;;;;;5073600;28;20028;-68
2022/05/11 08:26:51;;;;;;;13.43;6.28;;;25.20;83.90;;;;;;5073314;28;20028;-68
2022/05/11 08:34:51;;;;;;;7.93;5.70;;;25.20;83.10;;;;;;5073000;28;20032;-68
2022/05/11 08:37:17;;;;;;;12.00;5.63;;;25.70;82.10;;;;;;5073144;28;20099;-68
2022/05/11 08:39:43;;;;;;;11.77;6.13;;;25.90;82.60;;;;;;5073191;28;20470;-68
2022/05/11 08:42:10;;;;;;;8.70;5.85;;;25.80;81.50;;;;;;5073122;28;20020;-69
2022/05/11 08:44:39;;;;;;;8.20;5.25;;;25.80;82.30;;;;;;5073026;28;20025;-69
2022/05/11 08:47:19;;;;;;;8.18;5.95;;;25.60;81.70;;;;;;5073255;28;20028;-68
2022/05/11 08:50:11;;;;;;;14.77;5.57;;;25.50;83.00;;;;;;5073124;28;20494;-68
2022/05/11 08:52:57;;;;;;;9.38;6.15;;;25.60;81.90;;;;;;5072954;28;20020;-68
2022/05/11 08:55:46;;;;;;;9.15;5.88;;;25.80;79.00;;;;;;5072950;28;20141;-68
2022/05/11 08:58:23;;;;;;;12.38;6.05;;;26.10;80.50;;;;;;5072927;28;20108;-68
2022/05/11 09:00:52;;;;;;;7.65;5.07;;;26.80;79.80;;;;;;5072929;28;20020;-68
2022/05/11 09:03:38;;;;;;;12.30;4.82;;;26.80;77.10;;;;;;5088636;28;20037;-68
2022/05/11 09:06:16;;;;;;;11.68;5.72;;;26.40;76.90;;;;;;5072797;28;20052;-68
2022/05/11 09:08:42;;;;;;;15.10;5.72;;;25.90;76.30;;;;;;5072925;28;20028;-68
2022/05/11 09:11:13;;;;;;;9.40;5.55;;;25.50;79.20;;;;;;5076240;28;20028;-67
2022/05/11 09:13:42;;;;;;;8.85;5.57;;;25.70;77.60;;;;;;5076915;28;20024;-68
2022/05/11 09:16:19;;;;;;;10.38;5.20;;;25.90;77.90;;;;;;5077187;28;20497;-68
2022/05/11 09:18:45;;;;;;;11.45;5.68;;;26.30;76.90;;;;;;5077263;28;20029;-67
2022/05/11 09:21:32;;;;;;;8.20;5.20;;;25.90;76.00;;;;;;5077105;28;20386;-68
2022/05/11 09:24:08;;;;;;;14.27;5.55;;;26.10;76.30;;;;;;5076530;28;20021;-68
2022/05/11 09:26:39;;;;;;;13.77;5.75;;;25.70;76.50;;;;;;5092217;28;20463;-67
2022/05/11 09:29:16;;;;;;;12.23;5.68;;;25.50;76.80;;;;;;5092323;28;20402;-67
2022/05/11 09:31:43;;;;;;;10.80;5.45;;;25.80;76.70;;;;;;5076946;28;20035;-68
2022/05/11 09:34:22;;;;;;;10.35;5.80;;;26.00;76.80;;;;;;5076761;28;20496;-68
2022/05/11 09:37:23;;;;;;;10.35;5.38;;;25.80;76.50;;;;;;5076630;28;20035;-69
2022/05/11 09:39:53;;;;;;;8.68;5.25;;;26.30;75.30;;;;;;5092438;28;20478;-69
2022/05/11 09:42:32;;;;;;;8.32;4.75;;;26.00;73.90;;;;;;5076550;28;20494;-68
2022/05/11 09:44:57;;;;;;;15.02;5.07;;;25.90;76.50;;;;;;5076575;28;20053;-68
2022/05/11 09:47:30;;;;;;;21.75;5.05;;;26.20;75.00;;;;;;5076604;28;20509;-68
2022/05/11 09:50:15;;;;;;;14.88;4.63;;;25.90;75.10;;;;;;5076723;28;20032;-69
2022/05/11 09:52:41;;;;;;;14.45;4.90;;;25.60;77.20;;;;;;5091921;28;20504;-69
2022/05/11 09:55:19;;;;;;;12.27;5.38;;;25.90;75.50;;;;;;5076398;28;20028;-68
2022/05/11 09:57:58;;;;;;;10.13;5.40;;;25.70;76.10;;;;;;5076640;28;20521;-68
2022/05/11 10:00:32;;;;;;;9.85;5.10;;;25.70;76.70;;;;;;5076216;28;20169;-68
2022/05/11 10:03:02;;;;;;;8.27;4.82;;;26.20;75.70;;;;;;5091900;28;20028;-68
2022/05/11 10:05:32;;;;;;;9.40;5.75;;;26.00;76.60;;;;;;5076036;28;20017;-68
2022/05/11 10:08:21;;;;;;;8.52;4.70;;;25.60;78.00;;;;;;5091406;28;20474;-68
2022/05/11 10:11:02;;;;;;;5.30;4.05;;;25.90;77.10;;;;;;5076260;28;20028;-68
2022/05/11 10:13:35;;;;;;;10.27;5.07;;;25.40;79.00;;;;;;5075750;28;20032;-68
2022/05/11 10:22:09;;;;;;;7.40;4.30;;;26.20;75.90;;;;;;5074963;28;20024;-68
2022/05/11 10:27:46;;;;;;;7.15;4.07;;;26.40;75.70;;;;;;5110830;27;20424;-68
2022/05/11 10:30:20;;;;;;;11.60;3.95;;;27.00;72.90;;;;;;5111267;28;20118;-68
2022/05/11 10:33:14;;;;;;;10.60;4.10;;;26.60;74.20;;;;;;5110897;28;20024;-68
2022/05/11 10:35:52;;;;;;;8.70;3.90;;;27.00;74.70;;;;;;5110566;28;20020;-68
2022/05/11 10:38:48;;;;;;;7.78;3.60;;;27.00;73.60;;;;;;5110769;28;20102;-68
2022/05/11 10:41:25;;;;;;;8.57;3.97;;;27.00;73.80;;;;;;5110607;28;20362;-68
2022/05/11 10:44:02;;;;;;;8.02;3.80;;;26.80;72.10;;;;;;5110877;28;20032;-68
2022/05/11 10:46:36;;;;;;;9.40;4.25;;;26.40;74.80;;;;;;5110961;28;20035;-68
2022/05/11 10:49:42;;;;;;;11.68;4.38;;;25.90;76.90;;;;;;5110758;28;20462;-67
2022/05/11 10:52:28;;;;;;;7.95;4.05;;;26.20;74.70;;;;;;5110468;28;20050;-68
2022/05/11 10:55:10;;;;;;;9.50;4.22;;;25.60;75.30;;;;;;5110715;28;20490;-67
2022/05/11 10:58:05;;;;;;;9.43;4.25;;;25.50;79.10;;;;;;5110461;28;20024;-67
2022/05/11 11:00:36;;;;;;;11.50;4.13;;;24.90;77.30;;;;;;5110145;28;20028;-66
2022/05/11 11:03:26;;;;;;;8.88;4.07;;;25.30;77.80;;;;;;5110523;28;20024;-67
2022/05/11 11:09:12;;;;;;;9.85;4.00;;;25.40;76.60;;;;;;5110259;28;20031;-67
2022/05/11 11:12:06;;;;;;;7.00;4.30;;;25.40;77.50;;;;;;5110377;28;20035;-67
2022/05/11 11:14:36;;;;;;;8.75;4.10;;;25.40;76.60;;;;;;5109111;28;20023;-67
2022/05/11 11:17:04;;;;;;;7.40;4.00;;;25.30;76.90;;;;;;5110458;28;20032;-67
2022/05/11 11:19:31;;;;;;;10.20;3.60;;;25.70;75.90;;;;;;5110588;28;20474;-67
2022/05/11 11:21:56;;;;;;;7.15;3.60;;;25.60;77.60;;;;;;5110171;28;20042;-67
2022/05/11 11:24:25;;;;;;;15.95;4.20;;;25.90;78.00;;;;;;5110097;28;20020;-67
2022/05/11 11:27:01;;;;;;;9.25;4.35;;;26.00;77.00;;;;;;5109634;28;20102;-67
2022/05/11 11:29:31;;;;;;;7.72;3.88;;;25.90;77.00;;;;;;5108843;28;20020;-67
2022/05/11 11:32:02;;;;;;;12.45;3.92;;;25.90;75.60;;;;;;5110277;28;20073;-67
2022/05/11 11:34:31;;;;;;;9.15;4.22;;;25.60;75.40;;;;;;5109884;28;20016;-67
2022/05/11 11:36:58;;;;;;;12.55;4.07;;;25.50;76.30;;;;;;5104678;28;20436;-67
2022/05/11 11:39:52;;;;;;;8.48;4.10;;;25.60;77.90;;;;;;5096069;28;20024;-66
2022/05/11 11:42:37;;;;;;;10.13;4.40;;;25.60;77.30;;;;;;5095931;28;20477;-67
2022/05/11 11:45:06;;;;;;;10.65;4.32;;;25.60;77.30;;;;;;5096163;28;20036;-66
2022/05/11 11:47:36;;;;;;;9.77;4.22;;;25.40;76.00;;;;;;5096084;28;20032;-66
2022/05/11 11:50:02;;;;;;;7.00;3.35;;;25.40;76.60;;;;;;5096212;28;20539;-66
2022/05/11 11:52:43;;;;;;;10.02;4.45;;;25.70;77.60;;;;;;5094943;28;20453;-66
2022/05/11 11:55:25;;;;;;;8.77;4.20;;;25.50;76.60;;;;;;5095981;28;20020;-67
2022/05/11 11:57:56;;;;;;;7.40;4.30;;;25.70;76.60;;;;;;5095873;28;20028;-67
2022/05/11 12:00:51;;;;;;;10.18;3.90;;;25.60;75.90;;;;;;5095889;28;20031;-67
2022/05/11 12:03:19;;;;;;;8.77;4.53;;;25.50;74.90;;;;;;5095637;28;20474;-66
2022/05/11 12:05:49;;;;;;;10.50;3.90;;;25.60;75.20;;;;;;5096000;28;20107;-67
2022/05/11 12:16:53;;;;;;;9.63;3.80;;;25.50;73.10;;;;;;5095245;28;20150;-64
2022/05/11 12:19:20;;;;;;;11.75;3.97;;;25.50;74.00;;;;;;5095558;28;20446;-64
2022/05/11 12:22:14;;;;;;;16.08;4.03;;;25.70;72.40;;;;;;5095310;28;20062;-65
2022/05/11 12:24:44;;;;;;;8.38;3.50;;;25.70;71.20;;;;;;5095157;28;20047;-66
2022/05/11 12:27:21;;;;;;;14.02;3.92;;;25.80;71.40;;;;;;5094975;28;20459;-66
2022/05/11 12:30:15;;;;;;;11.00;4.47;;;25.50;72.00;;;;;;5095064;28;20024;-65
2022/05/11 12:32:47;;;;;;;;;;;25.60;70.80;;;;;;5095393;28;20012;-66
2022/05/11 12:35:18;;;;;;;9.82;3.30;;;25.50;71.80;;;;;;5094976;28;19911;-66
2022/05/11 12:37:52;;;;;;;11.02;3.75;;;25.60;70.80;;;;;;5095357;28;20020;-66
2022/05/11 12:40:19;;;;;;;5.90;3.30;;;25.60;71.30;;;;;;5095183;28;20516;-65
2022/05/11 12:42:51;;;;;;;7.13;3.40;;;26.00;71.00;;;;;;5095058;28;20387;-66
2022/05/11 12:45:21;;;;;;;8.35;3.90;;;25.80;70.90;;;;;;5095012;28;20020;-66
2022/05/11 12:47:53;;;;;;;12.23;4.20;;;25.80;71.00;;;;;;5095064;28;20168;-66
2022/05/11 12:50:31;;;;;;;6.82;3.15;;;25.90;69.60;;;;;;5093797;28;20020;-66
2022/05/11 12:53:02;;;;;;;8.05;3.22;;;26.10;70.70;;;;;;5094990;28;20409;-66
2022/05/11 12:55:34;;;;;;;6.00;3.65;;;25.90;71.00;;;;;;5093802;28;20482;-65
2022/05/11 12:58:00;;;;;;;7.40;3.57;;;26.00;71.80;;;;;;5094606;28;20471;-66
2022/05/11 13:00:28;;;;;;;11.50;3.40;;;26.00;70.60;;;;;;5094632;28;20110;-65
2022/05/11 13:02:55;;;;;;;5.53;3.03;;;26.20;71.00;;;;;;5094856;28;20036;-66
2022/05/11 13:05:20;;;;;;;7.03;3.40;;;26.20;70.60;;;;;;5094671;28;20441;-65
2022/05/11 13:08:04;;;;;;;6.93;3.20;;;26.10;69.00;;;;;;5094732;28;20019;-65
2022/05/11 13:10:34;;;;;;;8.48;3.35;;;26.10;68.80;;;;;;5094480;28;20028;-65
2022/05/11 13:13:04;;;;;;;6.78;3.10;;;26.10;69.00;;;;;;5094627;28;20027;-66
2022/05/11 13:15:39;;;;;;;5.03;2.80;;;26.30;70.00;;;;;;5094700;28;20456;-66
2022/05/11 13:18:08;;;;;;;9.52;3.70;;;26.40;68.30;;;;;;5094339;28;20486;-66
2022/05/11 13:20:38;;;;;;;7.60;3.55;;;26.10;67.70;;;;;;5094527;28;20028;-66
2022/05/11 13:23:18;;;;;;;6.28;3.47;;;26.10;68.90;;;;;;5076658;28;20408;-66
2022/05/11 13:28:29;;;;;;;7.05;3.17;;;26.20;67.30;;;;;;5110972;27;20404;-67
2022/05/11 13:30:58;;;;;;;6.13;3.00;;;26.30;68.00;;;;;;5111194;28;20028;-67
2022/05/11 13:33:36;;;;;;;8.10;3.65;;;26.30;67.40;;;;;;5110939;28;20059;-67
2022/05/11 13:36:23;;;;;;;6.72;3.08;;;26.20;68.70;;;;;;5110775;28;20027;-67
2022/05/11 13:38:55;;;;;;;8.68;3.70;;;26.40;69.40;;;;;;5110720;28;20034;-67
2022/05/11 13:41:27;;;;;;;7.75;3.30;;;26.60;67.20;;;;;;5109545;28;20130;-67